createdAt,value
2023-01-29T00:01:10.504Z,75.89
2023-01-29T00:03:34.736Z,75.48
2023-01-29T00:05:58.447Z,74.61
2023-01-29T00:08:22.153Z,75.08
2023-01-29T00:10:45.831Z,75.45
2023-01-29T00:13:09.575Z,75.44
2023-01-29T00:15:33.411Z,76.11
2023-01-29T00:17:58.601Z,76.13
2023-01-29T00:20:22.348Z,76.49
2023-01-29T00:22:46.336Z,76.05
2023-01-29T00:25:11.640Z,75.25
2023-01-29T00:27:35.407Z,76.06
2023-01-29T00:30:12.047Z,75.65
2023-01-29T00:32:35.949Z,77.31
2023-01-29T00:35:01.046Z,77.14
2023-01-29T00:37:24.843Z,76.64
2023-01-29T00:39:48.563Z,77.53
2023-01-29T00:42:29.004Z,77.41
2023-01-29T00:44:59.076Z,77.21
2023-01-29T00:47:33.437Z,78.31
2023-01-29T00:49:57.404Z,77.47
2023-01-29T00:52:25.416Z,76.40
2023-01-29T00:54:49.195Z,78.14
2023-01-29T00:57:12.936Z,77.42
2023-01-29T00:59:36.730Z,77.35
2023-01-29T01:02:17.793Z,77.87
2023-01-29T01:04:41.781Z,76.88
2023-01-29T01:07:05.619Z,76.61
2023-01-29T01:09:48.236Z,77.35
2023-01-29T01:12:11.960Z,77.66
2023-01-29T01:14:36.238Z,77.55
2023-01-29T01:17:00.433Z,78.34
2023-01-29T01:19:24.185Z,77.80
2023-01-29T01:21:48.412Z,78.45
2023-01-29T01:24:12.253Z,78.63
2023-01-29T01:26:37.608Z,78.04
2023-01-29T01:29:01.270Z,77.99
2023-01-29T01:31:25.194Z,78.03
2023-01-29T01:33:48.918Z,77.43
2023-01-29T01:36:14.088Z,77.65
2023-01-29T01:38:44.373Z,77.48
2023-01-29T01:41:08.476Z,76.89
2023-01-29T01:43:56.060Z,77.47
2023-01-29T01:46:20.186Z,76.84
2023-01-29T01:48:44.374Z,77.23
2023-01-29T01:51:08.680Z,78.64
2023-01-29T01:53:38.725Z,79.18
2023-01-29T01:56:07.349Z,77.53
2023-01-29T01:58:36.513Z,76.94
2023-01-29T02:01:02.135Z,77.81
2023-01-29T02:03:45.409Z,78.34
2023-01-29T02:06:28.738Z,78.44
2023-01-29T02:09:16.637Z,78.77
2023-01-29T02:11:40.931Z,79.10
2023-01-29T02:14:04.952Z,79.76
2023-01-29T02:16:30.596Z,77.79
2023-01-29T02:18:54.960Z,77.46
2023-01-29T02:21:51.750Z,76.66
2023-01-29T02:24:52.683Z,78.66
2023-01-29T02:27:19.897Z,77.50
2023-01-29T02:29:56.741Z,77.40
2023-01-29T02:32:29.382Z,78.95
2023-01-29T02:35:29.870Z,80.00
2023-01-29T02:38:05.223Z,78.73
2023-01-29T02:40:36.401Z,79.59
2023-01-29T02:43:10.276Z,78.80
2023-01-29T02:45:45.041Z,79.12
2023-01-29T02:48:12.097Z,78.27
2023-01-29T02:50:44.935Z,78.20
2023-01-29T02:53:15.643Z,79.24
2023-01-29T02:55:46.312Z,78.58
2023-01-29T02:58:16.340Z,78.66
2023-01-29T03:00:47.456Z,78.83
2023-01-29T03:03:17.264Z,78.22
2023-01-29T03:05:55.000Z,79.36
2023-01-29T03:08:42.998Z,78.79
2023-01-29T03:11:08.375Z,78.70
2023-01-29T03:13:42.215Z,79.13
2023-01-29T03:16:15.853Z,80.28
2023-01-29T03:18:50.838Z,79.59
2023-01-29T03:21:38.223Z,80.38
2023-01-29T03:24:19.470Z,80.76
2023-01-29T03:27:03.424Z,82.18
2023-01-29T03:29:51.315Z,80.82
2023-01-29T03:32:18.813Z,82.10
2023-01-29T03:34:51.831Z,81.25
2023-01-29T03:37:22.647Z,81.20
2023-01-29T03:39:46.821Z,82.14
2023-01-29T03:42:20.548Z,82.96
2023-01-29T03:44:54.501Z,82.90
2023-01-29T03:47:40.544Z,84.48
2023-01-29T03:50:12.322Z,85.23
2023-01-29T03:52:47.346Z,86.70
2023-01-29T03:55:17.687Z,85.24
2023-01-29T03:57:45.708Z,85.71
2023-01-29T04:00:19.761Z,87.70
2023-01-29T04:03:03.188Z,87.29
2023-01-29T04:05:36.020Z,86.10
2023-01-29T04:08:12.319Z,86.36
2023-01-29T04:10:39.540Z,86.63
2023-01-29T04:13:07.996Z,86.51
2023-01-29T04:15:36.604Z,87.31
2023-01-29T04:18:02.280Z,87.71
2023-01-29T04:20:52.404Z,90.27
2023-01-29T04:23:24.570Z,89.54
2023-01-29T04:25:58.022Z,88.76
2023-01-29T04:28:26.677Z,91.58
2023-01-29T04:30:56.188Z,90.82
2023-01-29T04:33:32.457Z,90.49
2023-01-29T04:36:16.265Z,90.53
2023-01-29T04:38:55.887Z,90.79
2023-01-29T04:41:26.869Z,90.63
2023-01-29T04:44:01.549Z,91.43
2023-01-29T04:46:35.068Z,90.12
2023-01-29T04:49:18.696Z,90.25
2023-01-29T04:51:51.140Z,92.13
2023-01-29T04:54:25.755Z,91.65
2023-01-29T04:56:56.674Z,90.01
2023-01-29T04:59:26.851Z,90.21
2023-01-29T05:01:51.126Z,90.41
2023-01-29T05:04:21.259Z,91.02
2023-01-29T05:06:46.727Z,90.59
2023-01-29T05:09:11.278Z,91.92
2023-01-29T05:11:35.894Z,91.02
2023-01-29T05:14:00.583Z,92.28
2023-01-29T05:16:29.354Z,91.74
2023-01-29T05:18:53.547Z,92.10
2023-01-29T05:21:18.854Z,91.63
2023-01-29T05:23:57.371Z,91.60
2023-01-29T05:26:39.895Z,91.19
2023-01-29T05:29:03.633Z,89.57
2023-01-29T05:31:27.394Z,89.96
2023-01-29T05:33:51.223Z,89.24
2023-01-29T05:36:14.870Z,90.30
2023-01-29T05:38:40.059Z,90.43
2023-01-29T05:41:03.824Z,91.45
2023-01-29T05:43:27.676Z,90.23
2023-01-29T05:45:55.555Z,89.81
2023-01-29T05:48:19.387Z,90.73
2023-01-29T05:50:43.137Z,91.08
2023-01-29T05:53:06.981Z,91.50
2023-01-29T05:55:32.142Z,89.78
2023-01-29T05:57:55.968Z,89.99
2023-01-29T06:00:20.892Z,89.00
2023-01-29T06:02:45.267Z,89.47
2023-01-29T06:05:10.299Z,91.39
2023-01-29T06:07:34.086Z,90.64
2023-01-29T06:09:57.716Z,91.39
2023-01-29T06:12:22.835Z,91.37
2023-01-29T06:14:46.461Z,90.94
2023-01-29T06:17:10.242Z,91.77
2023-01-29T06:19:33.912Z,91.69
2023-01-29T06:21:57.650Z,91.36
2023-01-29T06:24:21.318Z,90.59
2023-01-29T06:26:45.138Z,92.64
2023-01-29T06:29:10.307Z,90.89
2023-01-29T06:31:38.757Z,90.81
2023-01-29T06:34:03.893Z,91.33
2023-01-29T06:36:27.579Z,91.83
2023-01-29T06:38:51.340Z,91.12
2023-01-29T06:41:19.925Z,93.09
2023-01-29T06:43:45.896Z,92.87
2023-01-29T06:46:11.169Z,92.95
2023-01-29T06:48:34.810Z,91.54
2023-01-29T06:51:03.316Z,92.80
2023-01-29T06:53:27.094Z,91.41
2023-01-29T06:55:53.443Z,92.16
2023-01-29T06:58:17.096Z,92.44
2023-01-29T07:00:41.028Z,91.82
2023-01-29T07:03:06.711Z,92.16
2023-01-29T07:05:30.510Z,92.38
2023-01-29T07:07:54.239Z,92.43
2023-01-29T07:10:18.672Z,92.46
2023-01-29T07:12:42.498Z,91.59
2023-01-29T07:15:07.812Z,91.35
2023-01-29T07:17:31.494Z,92.01
2023-01-29T07:19:56.703Z,92.05
2023-01-29T07:22:20.395Z,91.19
2023-01-29T07:24:44.817Z,92.50
2023-01-29T07:27:08.599Z,92.22
2023-01-29T07:29:32.295Z,91.87
2023-01-29T07:31:56.079Z,93.38
2023-01-29T07:34:20.054Z,91.40
2023-01-29T07:36:45.334Z,91.03
2023-01-29T07:39:09.113Z,91.36
2023-01-29T07:41:32.844Z,90.19
2023-01-29T07:43:56.783Z,91.81
2023-01-29T07:46:20.500Z,92.30
2023-01-29T07:48:44.369Z,93.49
2023-01-29T07:51:08.421Z,93.26
2023-01-29T07:53:33.869Z,93.43
2023-01-29T07:55:58.035Z,92.66
2023-01-29T07:58:22.260Z,93.58
2023-01-29T08:00:46.374Z,93.16
2023-01-29T08:03:16.239Z,93.31
2023-01-29T08:05:40.418Z,94.23
2023-01-29T08:08:07.359Z,93.54
2023-01-29T08:10:33.109Z,94.09
2023-01-29T08:12:58.266Z,92.70
2023-01-29T08:15:22.011Z,92.25
2023-01-29T08:17:57.224Z,94.53
2023-01-29T08:20:23.369Z,93.96
2023-01-29T08:22:47.965Z,94.85
2023-01-29T08:25:11.993Z,94.04
2023-01-29T08:27:37.640Z,92.78
2023-01-29T08:30:01.645Z,92.20
2023-01-29T08:32:25.486Z,93.71
2023-01-29T08:34:49.318Z,93.51
2023-01-29T08:37:13.193Z,94.14
2023-01-29T08:39:36.963Z,92.99
2023-01-29T08:42:00.653Z,92.88
2023-01-29T08:44:25.963Z,93.24
2023-01-29T08:46:49.694Z,92.67
2023-01-29T08:49:13.605Z,93.02
2023-01-29T08:51:37.399Z,93.59
2023-01-29T08:54:01.120Z,94.62
2023-01-29T08:56:24.974Z,93.88
2023-01-29T08:58:48.852Z,94.13
2023-01-29T09:01:15.649Z,93.60
2023-01-29T09:03:41.228Z,94.67
2023-01-29T09:06:05.742Z,94.74
2023-01-29T09:08:29.488Z,94.83
2023-01-29T09:10:53.257Z,94.42
2023-01-29T09:13:17.048Z,93.80
2023-01-29T09:15:40.709Z,92.40
2023-01-29T09:18:07.518Z,93.35
2023-01-29T09:20:31.207Z,93.28
2023-01-29T09:22:56.732Z,92.67
2023-01-29T09:25:20.542Z,93.78
2023-01-29T09:27:44.272Z,93.33
2023-01-29T09:30:09.470Z,93.50
2023-01-29T09:35:19.201Z,93.56
2023-01-29T09:37:42.899Z,93.58
2023-01-29T09:40:08.645Z,92.75
2023-01-29T09:42:41.985Z,92.46
2023-01-29T09:45:13.870Z,91.39
2023-01-29T09:47:38.478Z,92.04
2023-01-29T09:50:05.949Z,92.40
2023-01-29T09:52:34.829Z,91.63
2023-01-29T09:55:04.851Z,90.40
2023-01-29T09:57:38.493Z,90.28
2023-01-29T10:00:02.337Z,91.21
2023-01-29T10:03:11.042Z,89.45
2023-01-29T10:05:52.024Z,89.97
2023-01-29T10:08:45.056Z,88.25
2023-01-29T10:11:20.612Z,88.45
2023-01-29T10:13:53.615Z,88.19
2023-01-29T10:16:39.582Z,89.28
2023-01-29T10:19:25.392Z,89.02
2023-01-29T10:22:28.828Z,88.11
2023-01-29T10:24:59.201Z,88.75
2023-01-29T10:27:22.972Z,87.91
2023-01-29T10:29:50.664Z,87.43
2023-01-29T10:32:18.587Z,88.49
2023-01-29T10:34:47.054Z,87.29
2023-01-29T10:37:19.713Z,87.47
2023-01-29T10:39:43.689Z,86.41
2023-01-29T10:42:24.367Z,86.39
2023-01-29T10:45:05.116Z,86.71
2023-01-29T10:47:55.472Z,86.08
2023-01-29T10:50:35.731Z,86.37
2023-01-29T10:53:20.831Z,84.44
2023-01-29T10:55:56.619Z,83.95
2023-01-29T10:58:32.505Z,83.56
2023-01-29T11:00:56.237Z,83.37
2023-01-29T11:03:28.470Z,81.70
2023-01-29T11:05:59.957Z,83.81
2023-01-29T11:08:29.486Z,82.04
2023-01-29T11:11:04.295Z,82.22
2023-01-29T11:13:36.661Z,81.72
2023-01-29T11:16:00.362Z,81.70
2023-01-29T11:18:24.039Z,80.54
2023-01-29T11:20:48.350Z,79.82
2023-01-29T11:23:28.535Z,79.73
2023-01-29T11:25:55.651Z,79.10
2023-01-29T11:28:40.127Z,78.39
2023-01-29T11:31:04.318Z,78.68
2023-01-29T11:33:28.084Z,79.52
2023-01-29T11:35:53.009Z,79.01
2023-01-29T11:38:23.242Z,78.99
2023-01-29T11:40:47.418Z,78.13
2023-01-29T11:43:21.871Z,78.99
2023-01-29T11:45:47.440Z,78.39
2023-01-29T11:48:17.836Z,77.17
2023-01-29T11:50:42.224Z,77.69
2023-01-29T11:53:07.169Z,77.60
2023-01-29T11:55:49.502Z,76.62
2023-01-29T11:58:18.818Z,77.59
2023-01-29T12:00:48.654Z,79.31
2023-01-29T12:03:18.178Z,76.81
2023-01-29T12:05:43.217Z,76.83
2023-01-29T12:08:19.057Z,77.39
2023-01-29T12:10:44.048Z,77.51
2023-01-29T12:13:22.864Z,78.30
2023-01-29T12:15:49.134Z,77.38
2023-01-29T12:18:21.539Z,76.68
2023-01-29T12:20:51.652Z,77.93
2023-01-29T12:23:32.399Z,76.39
2023-01-29T12:26:05.860Z,76.05
2023-01-29T12:28:44.461Z,75.95
2023-01-29T12:31:23.801Z,78.61
2023-01-29T12:33:54.460Z,77.27
2023-01-29T12:36:27.168Z,77.27
2023-01-29T12:38:51.217Z,75.91
2023-01-29T12:41:40.327Z,76.63
2023-01-29T12:44:12.121Z,76.85
2023-01-29T12:46:50.544Z,76.95
2023-01-29T12:49:20.575Z,76.08
2023-01-29T12:51:54.486Z,78.34
2023-01-29T12:54:24.784Z,77.14
2023-01-29T12:56:52.151Z,77.63
2023-01-29T12:59:25.086Z,77.55
2023-01-29T13:01:54.645Z,77.47
2023-01-29T13:04:30.803Z,77.68
2023-01-29T13:07:03.012Z,78.01
2023-01-29T13:09:33.689Z,77.19
2023-01-29T13:12:02.143Z,76.59
2023-01-29T13:14:30.076Z,76.89
2023-01-29T13:17:07.702Z,77.80
2023-01-29T13:19:36.892Z,78.17
2023-01-29T13:22:05.777Z,77.07
2023-01-29T13:24:37.967Z,77.03
2023-01-29T13:27:02.383Z,77.53
2023-01-29T13:29:28.218Z,76.68
2023-01-29T13:31:55.696Z,77.16
2023-01-29T13:34:24.939Z,77.39
2023-01-29T13:36:52.764Z,76.98
2023-01-29T13:39:26.268Z,75.92
2023-01-29T13:41:51.819Z,76.42
2023-01-29T13:44:26.557Z,78.00
2023-01-29T13:46:57.458Z,77.68
2023-01-29T13:49:33.128Z,77.75
2023-01-29T13:51:57.319Z,78.05
2023-01-29T13:54:26.255Z,77.99
2023-01-29T13:57:01.620Z,77.64
2023-01-29T13:59:53.546Z,79.91
2023-01-29T14:02:30.270Z,80.73
2023-01-29T14:05:33.899Z,79.90
2023-01-29T14:07:59.453Z,80.84
2023-01-29T14:10:25.407Z,81.16
2023-01-29T14:13:28.152Z,80.96
2023-01-29T14:16:37.151Z,82.78
2023-01-29T14:19:04.406Z,83.20
2023-01-29T14:21:32.052Z,85.70
2023-01-29T14:23:59.387Z,84.87
2023-01-29T14:26:28.254Z,85.28
2023-01-29T14:29:06.057Z,86.40
2023-01-29T14:31:40.958Z,86.45
2023-01-29T14:34:16.824Z,87.19
2023-01-29T14:36:42.249Z,88.09
2023-01-29T14:39:07.023Z,88.14
2023-01-29T14:41:34.129Z,90.17
2023-01-29T14:44:48.593Z,90.98
2023-01-29T14:47:23.499Z,90.83
2023-01-29T14:49:55.495Z,90.59
2023-01-29T14:52:23.159Z,89.06
2023-01-29T14:54:48.950Z,91.58
2023-01-29T14:57:17.055Z,89.80
2023-01-29T14:59:51.294Z,91.56
2023-01-29T15:02:22.616Z,91.88
2023-01-29T15:04:51.475Z,92.56
2023-01-29T15:07:27.131Z,92.47
2023-01-29T15:10:07.913Z,92.56
2023-01-29T15:12:47.682Z,91.36
2023-01-29T15:15:22.296Z,93.16
2023-01-29T15:17:57.241Z,91.42
2023-01-29T15:20:37.034Z,91.04
2023-01-29T15:23:03.280Z,91.31
2023-01-29T15:25:28.772Z,92.13
2023-01-29T15:27:53.213Z,92.89
2023-01-29T15:30:21.143Z,92.49
2023-01-29T15:32:45.132Z,92.50
2023-01-29T15:35:11.801Z,93.81
2023-01-29T15:37:38.771Z,93.87
2023-01-29T15:40:03.486Z,92.85
2023-01-29T15:42:29.627Z,92.87
2023-01-29T15:44:55.646Z,93.32
2023-01-29T15:47:19.822Z,92.98
2023-01-29T15:49:44.477Z,93.52
2023-01-29T15:52:16.672Z,92.93
2023-01-29T15:54:42.207Z,94.02
2023-01-29T15:57:07.378Z,93.57
2023-01-29T15:59:35.728Z,91.75
2023-01-29T16:02:00.127Z,91.17
2023-01-29T16:04:29.044Z,90.74
2023-01-29T16:06:55.005Z,89.71
2023-01-29T16:09:23.780Z,90.22
2023-01-29T16:11:50.540Z,92.04
2023-01-29T16:14:17.677Z,91.05
2023-01-29T16:16:45.006Z,89.36
2023-01-29T16:19:22.408Z,89.30
2023-01-29T16:21:47.072Z,91.94
2023-01-29T16:24:15.936Z,90.69
2023-01-29T16:26:48.370Z,89.20
2023-01-29T16:29:18.595Z,89.84
2023-01-29T16:31:44.574Z,90.51
2023-01-29T16:34:10.452Z,90.71
2023-01-29T16:36:34.367Z,89.83
2023-01-29T16:39:01.224Z,89.97
2023-01-29T16:41:33.273Z,90.60
2023-01-29T16:44:00.443Z,89.96
2023-01-29T16:46:34.098Z,89.81
2023-01-29T16:48:57.881Z,88.80
2023-01-29T16:51:28.430Z,89.73
2023-01-29T16:54:02.569Z,88.85
2023-01-29T16:56:29.029Z,88.38
2023-01-29T16:58:53.778Z,88.44
2023-01-29T17:01:19.702Z,88.89
2023-01-29T17:03:43.981Z,89.06
2023-01-29T17:06:11.906Z,87.81
2023-01-29T17:08:37.174Z,87.32
2023-01-29T17:11:01.690Z,87.36
2023-01-29T17:13:31.430Z,88.06
2023-01-29T17:15:55.336Z,87.03
2023-01-29T17:18:24.583Z,87.23
2023-01-29T17:20:48.535Z,85.92
2023-01-29T17:23:12.292Z,87.33
2023-01-29T17:25:35.996Z,87.75
2023-01-29T17:28:02.238Z,86.55
2023-01-29T17:30:28.633Z,86.37
2023-01-29T17:32:52.366Z,85.92
2023-01-29T17:35:19.172Z,86.17
2023-01-29T17:37:43.595Z,87.08
2023-01-29T17:40:18.163Z,86.88
2023-01-29T17:42:41.945Z,87.52
2023-01-29T17:45:06.450Z,87.63
2023-01-29T17:47:30.626Z,87.12
2023-01-29T17:49:54.484Z,86.61
2023-01-29T17:52:19.787Z,85.92
2023-01-29T17:54:43.461Z,86.59
2023-01-29T17:57:07.224Z,85.57
2023-01-29T17:59:33.590Z,85.98
2023-01-29T18:01:57.600Z,85.84
2023-01-29T18:04:21.485Z,85.95
2023-01-29T18:06:48.809Z,84.65
2023-01-29T18:09:14.954Z,86.56
2023-01-29T18:11:38.818Z,86.88
2023-01-29T18:14:13.605Z,86.93
2023-01-29T18:16:38.366Z,86.32
2023-01-29T18:19:02.463Z,86.88
2023-01-29T18:21:26.179Z,86.95
2023-01-29T18:23:49.872Z,87.40
2023-01-29T18:26:18.120Z,86.98
2023-01-29T18:28:43.535Z,87.18
2023-01-29T18:31:07.543Z,85.86
2023-01-29T18:33:31.423Z,86.66
2023-01-29T18:35:55.232Z,86.06
2023-01-29T18:38:19.489Z,86.18
2023-01-29T18:40:43.395Z,86.78
2023-01-29T18:43:08.647Z,86.76
2023-01-29T18:45:32.738Z,86.82
2023-01-29T18:47:56.469Z,86.27
2023-01-29T18:50:23.397Z,86.14
2023-01-29T18:52:47.073Z,86.52
2023-01-29T18:55:11.251Z,85.49
2023-01-29T18:58:26.349Z,85.80
2023-01-29T19:00:21.411Z,85.33
2023-01-29T19:02:46.609Z,86.16
2023-01-29T19:05:10.907Z,86.86
2023-01-29T19:07:34.603Z,86.93
2023-01-29T19:09:58.254Z,87.27
2023-01-29T19:12:22.954Z,86.13
2023-01-29T19:14:46.784Z,87.37
2023-01-29T19:17:11.906Z,87.23
2023-01-29T19:19:36.040Z,86.38
2023-01-29T19:21:59.810Z,87.72
2023-01-29T19:24:24.298Z,88.18
2023-01-29T19:26:48.180Z,88.92
2023-01-29T19:29:11.999Z,89.54
2023-01-29T19:31:35.640Z,90.70
2023-01-29T19:34:00.783Z,88.82
2023-01-29T19:36:24.437Z,89.47
2023-01-29T19:38:49.125Z,88.98
2023-01-29T19:41:13.012Z,89.03
2023-01-29T19:43:38.265Z,89.41
2023-01-29T19:46:03.099Z,88.54
2023-01-29T19:48:27.111Z,88.22
2023-01-29T19:50:56.448Z,87.92
2023-01-29T19:53:20.238Z,87.33
2023-01-29T19:55:43.965Z,87.38
2023-01-29T19:58:07.683Z,87.14
2023-01-29T20:00:31.450Z,86.88
2023-01-29T20:02:55.222Z,86.12
2023-01-29T20:05:20.380Z,85.11
2023-01-29T20:07:45.932Z,85.18
2023-01-29T20:10:17.416Z,85.67
2023-01-29T20:12:41.342Z,87.70
2023-01-29T20:15:07.339Z,86.42
2023-01-29T20:17:31.392Z,86.33
2023-01-29T20:19:54.989Z,86.86
2023-01-29T20:22:18.725Z,87.77
2023-01-29T20:24:43.773Z,86.59
2023-01-29T20:27:07.713Z,87.13
2023-01-29T20:29:31.433Z,86.15
2023-01-29T20:31:55.208Z,86.66
2023-01-29T20:34:18.814Z,85.79
2023-01-29T20:36:42.619Z,86.02
2023-01-29T20:39:06.308Z,86.24
2023-01-29T20:41:31.565Z,85.54
2023-01-29T20:43:55.196Z,85.28
2023-01-29T20:46:19.601Z,84.85
2023-01-29T20:48:43.523Z,84.90
2023-01-29T20:51:12.458Z,85.06
2023-01-29T20:53:36.415Z,85.65
2023-01-29T20:56:01.039Z,85.08
2023-01-29T20:58:27.210Z,84.89
2023-01-29T21:00:50.994Z,84.03
2023-01-29T21:03:14.832Z,84.09
2023-01-29T21:05:38.503Z,85.03
2023-01-29T21:08:02.144Z,84.01
2023-01-29T21:10:25.887Z,84.19
2023-01-29T21:12:49.505Z,85.51
2023-01-29T21:15:14.636Z,85.59
2023-01-29T21:17:38.337Z,85.08
2023-01-29T21:20:04.066Z,86.07
2023-01-29T21:22:27.727Z,85.67
2023-01-29T21:24:51.647Z,84.12
2023-01-29T21:27:15.293Z,83.84
2023-01-29T21:29:38.925Z,83.34
2023-01-29T21:32:04.549Z,82.69
2023-01-29T21:34:28.356Z,82.89
2023-01-29T21:36:51.991Z,83.09
2023-01-29T21:39:20.671Z,82.99
2023-01-29T21:42:02.110Z,83.74
2023-01-29T21:44:25.811Z,83.51
2023-01-29T21:46:49.440Z,83.11
2023-01-29T21:49:14.540Z,82.93
2023-01-29T21:51:38.244Z,83.62
2023-01-29T21:54:03.520Z,83.21
2023-01-29T21:56:27.164Z,82.94
2023-01-29T21:58:52.288Z,82.93
2023-01-29T22:01:36.219Z,83.98
2023-01-29T22:03:59.725Z,83.98
2023-01-29T22:06:25.514Z,83.36
2023-01-29T22:08:50.646Z,82.90
2023-01-29T22:11:14.431Z,82.69
2023-01-29T22:13:38.198Z,83.63
2023-01-29T22:16:02.234Z,83.31
2023-01-29T22:18:26.102Z,83.28
2023-01-29T22:20:55.327Z,83.89
2023-01-29T22:23:20.570Z,83.00
2023-01-29T22:25:44.712Z,82.90
2023-01-29T22:28:09.261Z,83.55
2023-01-29T22:30:33.151Z,83.28
2023-01-29T22:32:56.935Z,82.75
2023-01-29T22:35:20.529Z,82.67
2023-01-29T22:37:45.083Z,82.28
2023-01-29T22:40:12.718Z,81.78
2023-01-29T22:42:36.438Z,82.73
2023-01-29T22:45:00.133Z,82.10
2023-01-29T22:47:23.944Z,82.50
2023-01-29T22:49:50.100Z,81.31
2023-01-29T22:52:13.868Z,81.25
2023-01-29T22:54:38.613Z,82.56
2023-01-29T22:57:03.782Z,81.01
2023-01-29T22:59:28.739Z,81.18
2023-01-29T23:01:53.794Z,81.16
2023-01-29T23:04:17.447Z,81.63
2023-01-29T23:06:41.174Z,81.75
2023-01-29T23:09:04.871Z,81.57
2023-01-29T23:11:28.872Z,80.41
2023-01-29T23:13:55.631Z,81.51
2023-01-29T23:16:21.429Z,80.78
2023-01-29T23:18:45.847Z,80.85
2023-01-29T23:21:10.522Z,80.92
2023-01-29T23:23:36.066Z,81.30
2023-01-29T23:26:17.721Z,80.88
2023-01-29T23:28:41.747Z,80.44
2023-01-29T23:31:07.075Z,80.17
2023-01-29T23:33:30.834Z,79.89
2023-01-29T23:35:54.432Z,79.34
2023-01-29T23:38:18.594Z,79.92
2023-01-29T23:40:42.268Z,80.03
2023-01-29T23:43:05.959Z,79.38
2023-01-29T23:45:29.610Z,79.38
2023-01-29T23:47:54.705Z,79.24
2023-01-29T23:50:19.277Z,79.42
2023-01-29T23:52:43.363Z,78.67
2023-01-29T23:55:08.598Z,79.03
2023-01-29T23:57:32.289Z,78.72
2023-01-29T23:59:55.912Z,79.08
